WMKK/KUL METAR and TAF weather

Enter ICAO airport designator
Station Type Date Time Source
WMKK METAR 2019/06/17 14:30 UTC NOAA

WMKK 171430Z 14003KT 100V180 9000 FEW030 BKN140 28/26 Q1010 NOSIG


Station Type Date Time Source
WMKK Decoded METAR 2019/06/17 14:30 UTC NOAA

Sepang/KL International Airport, Malaysia (WMKK) 02-44N 101-42E 22M
Jun 17, 2019 - 10:30 AM EDT / 2019.06.17 1430 UTC
Wind: from the SE (140 degrees) at 3 MPH (3 KT) (direction variable):0
Visibility: 5 mile(s):0
Sky conditions: mostly cloudy
Temperature: 82 F (28 C)
Dew Point: 78 F (26 C)
Relative Humidity: 88%
Pressure (altimeter): 29.83 in. Hg (1010 hPa)
ob: WMKK 171430Z 14003KT 100V180 9000 FEW030 BKN140 28/26 Q1010 NOSIG
cycle: 14

Station Type Date Time Source
WMKK TAF 2019/06/17 12:09 UTC NOAA

TAF WMKK 171100Z 1712/1818 VRB02KT 9999 FEW017CB PROB30
TEMPO 1719/1723 16008KT 4000 TSRA FEW010 FEW017CB SCT018
BECMG 1800/1802 16007KT FEW018

Example: see airport list